createdAt,value
2019-02-16T00:01:47.776Z,61.10
2019-02-16T00:04:14.509Z,61.20
2019-02-16T00:06:41.303Z,61.10
2019-02-16T00:09:08.032Z,61.00
2019-02-16T00:11:34.754Z,60.90
2019-02-16T00:14:01.543Z,60.50
2019-02-16T00:16:28.276Z,60.70
2019-02-16T00:18:54.991Z,60.90
2019-02-16T00:21:21.797Z,61.40
2019-02-16T00:23:48.512Z,61.40
2019-02-16T00:26:15.261Z,61.20
2019-02-16T00:28:42.040Z,60.90
2019-02-16T00:31:08.763Z,60.80
2019-02-16T00:33:35.497Z,60.80
2019-02-16T00:36:02.290Z,61.20
2019-02-16T00:38:29.019Z,61.30
2019-02-16T00:40:55.746Z,61.20
2019-02-16T00:43:22.537Z,60.50
2019-02-16T00:45:49.240Z,60.10
2019-02-16T00:48:15.977Z,60.00
2019-02-16T00:50:42.732Z,60.70
2019-02-16T00:53:09.466Z,60.80
2019-02-16T00:55:39.514Z,61.20
2019-02-16T00:58:06.304Z,60.60
2019-02-16T01:00:33.024Z,60.90
2019-02-16T01:02:59.737Z,61.10
2019-02-16T01:05:26.501Z,61.30
2019-02-16T01:07:53.236Z,61.10
2019-02-16T01:10:20.029Z,61.00
2019-02-16T01:12:46.760Z,61.00
2019-02-16T01:15:13.480Z,61.30
2019-02-16T01:17:40.262Z,61.50
2019-02-16T01:20:08.500Z,61.30
2019-02-16T01:22:35.231Z,61.30
2019-02-16T01:25:02.017Z,61.40
2019-02-16T01:27:28.745Z,61.20
2019-02-16T01:29:55.483Z,61.20
2019-02-16T01:32:22.312Z,61.30
2019-02-16T01:34:49.037Z,61.30
2019-02-16T01:37:15.759Z,61.20
2019-02-16T01:39:42.553Z,61.20
2019-02-16T01:42:09.295Z,60.90
2019-02-16T01:44:36.028Z,60.90
2019-02-16T01:47:02.803Z,60.90
2019-02-16T01:49:29.542Z,61.30
2019-02-16T01:51:56.278Z,61.60
2019-02-16T01:54:23.032Z,60.80
2019-02-16T01:56:49.819Z,60.80
2019-02-16T01:59:16.613Z,61.70
2019-02-16T02:01:43.354Z,60.90
2019-02-16T02:04:10.071Z,60.90
2019-02-16T02:06:36.872Z,60.60
2019-02-16T02:09:04.095Z,60.60
2019-02-16T02:11:30.842Z,61.20
2019-02-16T02:13:57.620Z,61.00
2019-02-16T02:16:24.332Z,61.40
2019-02-16T02:18:51.071Z,61.40
2019-02-16T02:21:17.847Z,61.70
2019-02-16T02:23:44.557Z,61.30
2019-02-16T02:26:11.336Z,60.80
2019-02-16T02:28:38.067Z,60.80
2019-02-16T02:31:04.831Z,61.20
2019-02-16T02:33:31.609Z,61.30
2019-02-16T02:35:58.351Z,61.30
2019-02-16T02:38:25.129Z,60.80
2019-02-16T02:40:51.857Z,61.00
2019-02-16T02:43:18.583Z,61.30
2019-02-16T02:45:45.314Z,60.80
2019-02-16T02:48:12.082Z,60.40
2019-02-16T02:50:38.803Z,61.20
2019-02-16T02:53:05.578Z,61.40
2019-02-16T02:55:32.298Z,62.00
2019-02-16T02:57:59.079Z,62.10
2019-02-16T03:00:25.885Z,62.10
2019-02-16T03:02:52.604Z,61.90
2019-02-16T03:05:19.330Z,62.00
2019-02-16T03:07:46.105Z,61.90
2019-02-16T03:10:12.813Z,61.80
2019-02-16T03:12:39.597Z,62.10
2019-02-16T03:15:06.429Z,62.10
2019-02-16T03:17:33.192Z,61.80
2019-02-16T03:19:59.942Z,61.80
2019-02-16T03:23:07.009Z,62.00
2019-02-16T03:25:33.792Z,62.10
2019-02-16T03:28:25.496Z,63.00
2019-02-16T03:31:20.273Z,61.80
2019-02-16T03:33:58.212Z,61.30
2019-02-16T03:36:39.326Z,61.50
2019-02-16T03:39:10.960Z,61.60
2019-02-16T03:41:37.706Z,61.40
2019-02-16T03:44:04.489Z,61.70
2019-02-16T03:46:31.230Z,61.60
2019-02-16T03:48:57.942Z,61.50
2019-02-16T03:51:24.720Z,61.40
2019-02-16T03:53:51.454Z,61.40
2019-02-16T03:56:18.248Z,61.60
2019-02-16T03:58:48.512Z,61.70
2019-02-16T04:01:15.246Z,62.00
2019-02-16T04:03:42.049Z,62.00
2019-02-16T04:06:08.777Z,62.00
2019-02-16T04:08:35.506Z,62.10
2019-02-16T04:11:02.290Z,61.60
2019-02-16T04:13:29.020Z,61.70
2019-02-16T04:15:55.835Z,61.60
2019-02-16T04:18:22.551Z,61.40
2019-02-16T04:20:49.295Z,61.70
2019-02-16T04:23:16.102Z,61.80
2019-02-16T04:25:42.823Z,62.10
2019-02-16T04:28:09.559Z,62.30
2019-02-16T04:30:36.348Z,62.30
2019-02-16T04:33:03.061Z,61.80
2019-02-16T04:35:29.778Z,62.00
2019-02-16T04:37:57.823Z,61.80
2019-02-16T04:40:24.561Z,61.70
2019-02-16T04:42:51.289Z,62.10
2019-02-16T04:45:18.099Z,62.00
2019-02-16T04:47:44.820Z,61.30
2019-02-16T04:50:11.548Z,60.90
2019-02-16T04:52:38.345Z,60.50
2019-02-16T04:55:06.393Z,60.20
2019-02-16T04:57:33.100Z,60.60
2019-02-16T04:59:59.917Z,60.80
2019-02-16T05:02:26.655Z,61.00
2019-02-16T05:04:53.376Z,61.40
2019-02-16T05:07:20.169Z,61.70
2019-02-16T05:09:46.895Z,61.50
2019-02-16T05:12:13.620Z,61.30
2019-02-16T05:14:40.398Z,61.20
2019-02-16T05:17:07.124Z,61.20
2019-02-16T05:19:33.858Z,60.90
2019-02-16T05:22:00.641Z,61.10
2019-02-16T05:24:27.366Z,60.60
2019-02-16T05:26:54.082Z,61.10
2019-02-16T05:29:20.864Z,61.00
2019-02-16T05:31:47.585Z,61.10
2019-02-16T05:34:14.317Z,61.30
2019-02-16T05:36:41.089Z,61.70
2019-02-16T05:39:07.834Z,61.80
2019-02-16T05:41:34.594Z,61.80
2019-02-16T05:44:01.315Z,62.00
2019-02-16T05:46:28.060Z,62.30
2019-02-16T05:48:54.837Z,62.10
2019-02-16T05:51:21.558Z,61.90
2019-02-16T05:53:48.286Z,61.80
2019-02-16T05:56:15.059Z,62.20
2019-02-16T05:58:41.771Z,63.00
2019-02-16T06:01:08.558Z,62.60
2019-02-16T06:03:35.339Z,62.50
2019-02-16T06:06:02.056Z,62.60
2019-02-16T06:08:28.779Z,62.80
2019-02-16T06:10:55.584Z,62.40
2019-02-16T06:13:22.332Z,62.30
2019-02-16T06:15:49.073Z,62.30
2019-02-16T06:18:15.843Z,62.20
2019-02-16T06:20:42.553Z,62.10
2019-02-16T06:23:09.349Z,61.90
2019-02-16T06:25:36.077Z,61.50
2019-02-16T06:28:02.809Z,61.30
2019-02-16T06:30:29.602Z,61.50
2019-02-16T06:32:56.342Z,61.60
2019-02-16T06:35:23.118Z,61.10
2019-02-16T06:37:49.857Z,60.70
2019-02-16T06:40:18.445Z,60.90
2019-02-16T06:42:45.217Z,60.90
2019-02-16T06:45:11.955Z,60.30
2019-02-16T06:47:40.280Z,60.20
2019-02-16T06:50:07.043Z,60.60
2019-02-16T06:52:33.777Z,60.80
2019-02-16T06:55:00.634Z,60.30
2019-02-16T06:57:27.357Z,59.80
2019-02-16T06:59:54.072Z,60.00
2019-02-16T07:02:20.908Z,60.60
2019-02-16T07:04:47.632Z,62.10
2019-02-16T07:07:14.355Z,62.10
2019-02-16T07:09:41.123Z,62.90
2019-02-16T07:12:07.864Z,65.70
2019-02-16T07:14:34.582Z,64.10
2019-02-16T07:17:01.364Z,62.00
2019-02-16T07:19:28.097Z,62.00
2019-02-16T07:21:54.825Z,61.80
2019-02-16T07:24:21.603Z,61.80
2019-02-16T07:26:48.348Z,61.90
2019-02-16T07:29:15.090Z,61.80
2019-02-16T07:31:41.885Z,61.20
2019-02-16T07:34:08.629Z,60.70
2019-02-16T07:36:35.366Z,60.60
2019-02-16T07:39:02.159Z,60.80
2019-02-16T07:41:28.877Z,60.50
2019-02-16T07:43:55.594Z,60.20
2019-02-16T07:46:22.372Z,60.70
2019-02-16T07:48:49.099Z,61.10
2019-02-16T07:51:15.903Z,61.70
2019-02-16T07:53:42.624Z,61.50
2019-02-16T07:56:09.350Z,62.20
2019-02-16T07:58:36.217Z,62.00
2019-02-16T08:01:02.939Z,62.00
2019-02-16T08:03:29.699Z,61.90
2019-02-16T08:05:56.484Z,61.70
2019-02-16T08:08:23.211Z,61.60
2019-02-16T08:10:49.927Z,61.80
2019-02-16T08:13:16.717Z,62.10
2019-02-16T08:15:43.452Z,62.20
2019-02-16T08:18:10.193Z,62.10
2019-02-16T08:20:36.991Z,61.90
2019-02-16T08:23:03.730Z,61.70
2019-02-16T08:25:30.464Z,61.40
2019-02-16T08:27:57.244Z,61.20
2019-02-16T08:30:23.969Z,61.30
2019-02-16T08:32:50.712Z,61.10
2019-02-16T08:35:17.499Z,61.30
2019-02-16T08:37:44.226Z,60.90
2019-02-16T08:40:10.947Z,60.90
2019-02-16T08:42:37.704Z,61.00
2019-02-16T08:45:06.248Z,61.30
2019-02-16T08:47:33.041Z,61.40
2019-02-16T08:49:59.781Z,61.90
2019-02-16T08:52:26.515Z,61.50
2019-02-16T08:55:02.019Z,61.20
2019-02-16T08:57:28.741Z,61.20
2019-02-16T08:59:55.481Z,61.40
2019-02-16T09:02:22.283Z,61.40
2019-02-16T09:04:49.060Z,61.10
2019-02-16T09:07:15.781Z,60.90
2019-02-16T09:09:42.554Z,61.00
2019-02-16T09:12:09.276Z,61.60
2019-02-16T09:14:36.076Z,61.50
2019-02-16T09:17:02.789Z,61.80
2019-02-16T09:19:29.505Z,61.20
2019-02-16T09:21:56.275Z,60.80
2019-02-16T09:24:23.010Z,60.80
2019-02-16T09:26:49.752Z,61.10
2019-02-16T09:29:16.482Z,61.20
2019-02-16T09:31:43.252Z,61.80
2019-02-16T09:34:09.976Z,62.30
2019-02-16T09:36:36.778Z,62.80
2019-02-16T09:39:04.199Z,63.10
2019-02-16T09:41:30.919Z,63.10
2019-02-16T09:43:57.695Z,62.70
2019-02-16T09:46:24.417Z,62.70
2019-02-16T09:48:51.201Z,62.80
2019-02-16T09:51:17.917Z,62.30
2019-02-16T09:53:44.663Z,62.20
2019-02-16T09:56:11.434Z,61.50
2019-02-16T09:58:38.164Z,61.20
2019-02-16T10:01:04.881Z,61.00
2019-02-16T10:03:31.676Z,61.00
2019-02-16T10:05:59.159Z,61.50
2019-02-16T10:08:25.869Z,62.00
2019-02-16T10:10:52.682Z,62.50
2019-02-16T10:13:19.404Z,62.90
2019-02-16T10:15:46.129Z,62.90
2019-02-16T10:18:12.904Z,62.90
2019-02-16T10:20:40.456Z,62.30
2019-02-16T10:23:07.362Z,63.10
2019-02-16T10:25:34.145Z,63.00
2019-02-16T10:28:00.872Z,62.70
2019-02-16T10:30:27.615Z,62.00
2019-02-16T10:32:54.424Z,61.40
2019-02-16T10:35:21.152Z,61.80
2019-02-16T10:37:47.887Z,62.30
2019-02-16T10:40:14.676Z,61.50
2019-02-16T10:42:41.408Z,61.40
2019-02-16T10:45:08.132Z,61.50
2019-02-16T10:47:34.934Z,61.70
2019-02-16T10:50:01.661Z,62.30
2019-02-16T10:52:28.402Z,61.10
2019-02-16T10:54:55.296Z,60.80
2019-02-16T10:57:22.038Z,61.30
2019-02-16T10:59:48.771Z,60.60
2019-02-16T11:02:15.542Z,60.00
2019-02-16T11:04:42.253Z,59.40
2019-02-16T11:07:09.036Z,58.70
2019-02-16T11:09:35.833Z,58.10
2019-02-16T11:12:02.577Z,58.00
2019-02-16T11:14:29.309Z,58.30
2019-02-16T11:16:56.100Z,58.70
2019-02-16T11:19:22.838Z,59.00
2019-02-16T11:21:49.569Z,59.30
2019-02-16T11:24:16.355Z,59.80
2019-02-16T11:26:43.087Z,59.40
2019-02-16T11:29:11.168Z,60.10
2019-02-16T11:31:38.090Z,61.30
2019-02-16T11:34:07.641Z,61.00
2019-02-16T11:36:34.484Z,60.60
2019-02-16T11:39:01.330Z,61.00
2019-02-16T11:41:28.077Z,60.90
2019-02-16T11:43:54.812Z,61.10
2019-02-16T11:46:21.593Z,61.10
2019-02-16T11:48:50.052Z,61.90
2019-02-16T11:51:16.727Z,62.30
2019-02-16T11:53:43.516Z,61.20
2019-02-16T11:56:10.269Z,60.30
2019-02-16T11:58:37.000Z,60.00
2019-02-16T12:01:03.785Z,60.40
2019-02-16T12:03:30.538Z,59.30
2019-02-16T12:05:57.261Z,58.40
2019-02-16T12:08:24.103Z,57.10
2019-02-16T12:10:50.831Z,56.50
2019-02-16T12:13:17.564Z,55.40
2019-02-16T12:15:44.363Z,54.40
2019-02-16T12:18:11.093Z,53.00
2019-02-16T12:20:37.813Z,51.70
2019-02-16T12:23:04.599Z,50.10
2019-02-16T12:25:31.344Z,48.80
2019-02-16T12:27:58.083Z,48.00
2019-02-16T12:30:24.886Z,48.30
2019-02-16T12:32:51.625Z,47.60
2019-02-16T12:35:18.351Z,46.40
2019-02-16T12:37:45.163Z,45.80
2019-02-16T12:40:11.894Z,45.00
2019-02-16T12:42:38.616Z,44.50
2019-02-16T12:45:08.508Z,44.30
2019-02-16T12:47:35.228Z,44.00
2019-02-16T12:50:02.167Z,44.80
2019-02-16T12:52:28.961Z,44.50
2019-02-16T12:54:55.693Z,44.50
2019-02-16T12:57:22.423Z,43.00
2019-02-16T12:59:49.218Z,42.30
2019-02-16T13:02:15.960Z,42.70
2019-02-16T13:04:42.746Z,41.70
2019-02-16T13:07:09.526Z,41.10
2019-02-16T13:09:36.319Z,40.90
2019-02-16T13:12:03.078Z,40.30
2019-02-16T13:14:29.799Z,40.60
2019-02-16T13:16:56.521Z,41.10
2019-02-16T13:19:23.301Z,41.40
2019-02-16T13:21:50.039Z,41.90
2019-02-16T13:24:16.843Z,41.80
2019-02-16T13:26:43.579Z,42.60
2019-02-16T13:29:10.372Z,42.20
2019-02-16T13:31:37.135Z,44.00
2019-02-16T13:34:04.157Z,43.90
2019-02-16T13:36:30.948Z,43.20
2019-02-16T13:38:57.700Z,44.50
2019-02-16T13:41:24.447Z,45.20
2019-02-16T13:43:51.239Z,44.30
2019-02-16T13:46:18.279Z,46.70
2019-02-16T13:48:45.000Z,48.60
2019-02-16T13:51:13.110Z,49.20
2019-02-16T13:53:39.853Z,50.10
2019-02-16T13:56:06.572Z,49.70
2019-02-16T13:58:33.367Z,50.80
2019-02-16T14:01:00.095Z,52.00
2019-02-16T14:03:26.872Z,52.90
2019-02-16T14:05:53.583Z,53.00
2019-02-16T14:08:20.333Z,53.50
2019-02-16T14:10:47.167Z,53.50
2019-02-16T14:13:13.914Z,54.20
2019-02-16T14:15:40.653Z,55.30
2019-02-16T14:18:07.431Z,55.80
2019-02-16T14:20:34.200Z,54.90
2019-02-16T14:23:00.936Z,54.30
2019-02-16T14:25:27.705Z,55.00
2019-02-16T14:27:54.441Z,55.30
2019-02-16T14:30:21.244Z,56.00
2019-02-16T14:32:47.974Z,56.40
2019-02-16T14:35:14.712Z,56.90
2019-02-16T14:37:41.506Z,56.80
2019-02-16T14:40:08.233Z,56.80
2019-02-16T14:42:34.971Z,56.60
2019-02-16T14:45:01.844Z,56.00
2019-02-16T14:47:28.567Z,56.10
2019-02-16T14:49:55.356Z,56.30
2019-02-16T14:52:22.076Z,56.10
2019-02-16T14:54:48.796Z,55.20
2019-02-16T14:57:15.586Z,55.60
2019-02-16T14:59:42.317Z,56.50
2019-02-16T15:02:09.026Z,56.80
2019-02-16T15:04:35.788Z,56.80
2019-02-16T15:07:02.518Z,57.10
2019-02-16T15:09:29.308Z,58.00
2019-02-16T15:11:56.086Z,58.50
2019-02-16T15:14:22.914Z,59.30
2019-02-16T15:16:49.687Z,59.10
2019-02-16T15:19:16.413Z,58.60
2019-02-16T15:21:43.131Z,58.50
2019-02-16T15:24:09.911Z,58.70
2019-02-16T15:26:36.727Z,58.70
2019-02-16T15:29:03.475Z,58.60
2019-02-16T15:31:30.242Z,59.00
2019-02-16T15:33:56.972Z,58.50
2019-02-16T15:36:24.392Z,58.90
2019-02-16T15:38:51.192Z,58.60
2019-02-16T15:41:17.903Z,59.60
2019-02-16T15:43:44.617Z,59.50
2019-02-16T15:46:11.434Z,58.90
2019-02-16T15:48:38.154Z,59.70
2019-02-16T15:51:06.731Z,60.80
2019-02-16T15:53:33.529Z,60.10
2019-02-16T15:56:00.264Z,60.10
2019-02-16T15:58:27.004Z,59.80
2019-02-16T16:00:53.838Z,59.70
2019-02-16T16:03:20.583Z,60.40
2019-02-16T16:05:47.395Z,60.80
2019-02-16T16:08:14.165Z,59.90
2019-02-16T16:10:40.896Z,60.00
2019-02-16T16:13:07.715Z,60.40
2019-02-16T16:15:41.749Z,60.50
2019-02-16T16:18:03.131Z,61.30
2019-02-16T16:20:30.478Z,61.00
2019-02-16T16:22:57.301Z,60.70
2019-02-16T16:25:24.159Z,60.60
2019-02-16T16:27:52.773Z,60.70
2019-02-16T16:30:19.767Z,60.90
2019-02-16T16:32:46.806Z,60.10
2019-02-16T16:35:13.739Z,60.40
2019-02-16T16:37:40.757Z,61.20
2019-02-16T16:40:07.574Z,60.00
2019-02-16T16:42:34.375Z,59.80
2019-02-16T16:45:01.547Z,60.60
2019-02-16T16:47:28.497Z,61.30
2019-02-16T16:49:55.324Z,61.70
2019-02-16T16:52:22.226Z,61.80
2019-02-16T16:54:49.013Z,61.40
2019-02-16T16:57:15.758Z,62.00
2019-02-16T16:59:42.562Z,62.30
2019-02-16T17:02:10.575Z,62.30
2019-02-16T17:04:37.426Z,62.30
2019-02-16T17:07:04.460Z,62.30
2019-02-16T17:09:31.493Z,62.10
2019-02-16T17:11:58.393Z,62.50
2019-02-16T17:14:27.156Z,63.10
2019-02-16T17:16:54.247Z,62.80
2019-02-16T17:19:21.282Z,62.90
2019-02-16T17:21:48.306Z,62.60
2019-02-16T17:24:15.344Z,62.70
2019-02-16T17:26:42.490Z,62.90
2019-02-16T17:29:09.698Z,63.00
2019-02-16T17:31:36.633Z,62.00
2019-02-16T17:34:03.470Z,61.90
2019-02-16T17:36:30.557Z,61.80
2019-02-16T17:38:57.505Z,61.70
2019-02-16T17:41:24.505Z,62.50
2019-02-16T17:43:51.438Z,62.90
2019-02-16T17:46:21.376Z,62.70
2019-02-16T17:48:48.448Z,62.70
2019-02-16T17:51:15.414Z,63.00
2019-02-16T17:53:42.543Z,63.00
2019-02-16T17:56:09.456Z,63.10
2019-02-16T17:58:36.492Z,63.00
2019-02-16T18:01:03.543Z,63.00
2019-02-16T18:03:30.726Z,62.80
2019-02-16T18:05:57.669Z,62.70
2019-02-16T18:11:38.442Z,62.80
2019-02-16T18:14:05.990Z,62.70
2019-02-16T18:16:32.939Z,63.00
2019-02-16T18:19:00.076Z,63.40
2019-02-16T18:21:27.281Z,63.00
2019-02-16T18:23:54.250Z,63.00
2019-02-16T18:26:21.155Z,63.30
2019-02-16T18:28:56.478Z,63.20
2019-02-16T18:31:16.893Z,63.40
2019-02-16T18:33:43.913Z,63.20
2019-02-16T18:36:11.040Z,62.40
2019-02-16T18:38:38.665Z,62.20
2019-02-16T18:41:05.643Z,61.60
2019-02-16T18:43:33.374Z,61.80
2019-02-16T18:46:00.379Z,62.00
2019-02-16T18:48:29.301Z,62.00
2019-02-16T18:50:56.332Z,62.30
2019-02-16T18:53:28.542Z,62.80
2019-02-16T18:55:55.576Z,63.10
2019-02-16T18:58:22.504Z,62.80
2019-02-16T19:00:49.488Z,62.70
2019-02-16T19:03:16.436Z,62.70
2019-02-16T19:05:43.551Z,62.60
2019-02-16T19:08:10.529Z,62.60
2019-02-16T19:10:37.613Z,62.80
2019-02-16T19:13:04.638Z,62.50
2019-02-16T19:15:31.880Z,62.90
2019-02-16T19:18:01.127Z,63.20
2019-02-16T19:20:28.203Z,62.90
2019-02-16T19:22:56.712Z,62.70
2019-02-16T19:25:30.003Z,62.40
2019-02-16T19:27:56.879Z,62.10
2019-02-16T19:30:23.922Z,62.00
2019-02-16T19:32:51.723Z,62.20
2019-02-16T19:35:24.933Z,62.40
2019-02-16T19:37:47.426Z,62.50
2019-02-16T19:40:14.400Z,62.50
2019-02-16T19:42:41.525Z,62.60
2019-02-16T19:45:08.975Z,62.80
2019-02-16T19:47:37.821Z,62.70
2019-02-16T19:50:06.847Z,62.40
2019-02-16T19:52:33.862Z,62.50
2019-02-16T19:55:01.005Z,62.70
2019-02-16T19:57:28.079Z,62.50
2019-02-16T19:59:54.969Z,62.60
2019-02-16T20:02:21.902Z,62.50
2019-02-16T20:04:50.172Z,62.10
2019-02-16T20:07:17.578Z,62.50
2019-02-16T20:09:44.652Z,62.20
2019-02-16T20:12:11.669Z,62.20
2019-02-16T20:14:39.015Z,62.30
2019-02-16T20:17:06.304Z,62.40
2019-02-16T20:19:33.697Z,62.60
2019-02-16T20:22:00.854Z,62.30
2019-02-16T20:24:28.016Z,62.40
2019-02-16T20:26:55.190Z,62.40
2019-02-16T20:29:22.401Z,62.70
2019-02-16T20:31:49.487Z,62.90
2019-02-16T20:34:16.597Z,62.60
2019-02-16T20:36:43.622Z,62.10
2019-02-16T20:39:10.709Z,62.20
2019-02-16T20:41:37.887Z,61.80
2019-02-16T20:44:05.126Z,61.50
2019-02-16T20:46:32.197Z,61.80
2019-02-16T20:48:59.526Z,62.40
2019-02-16T20:51:26.791Z,63.00
2019-02-16T20:53:53.729Z,62.80
2019-02-16T20:56:20.846Z,62.50
2019-02-16T20:58:47.972Z,62.70
2019-02-16T21:01:15.498Z,62.60
2019-02-16T21:03:42.807Z,62.60
2019-02-16T21:06:09.909Z,62.40
2019-02-16T21:08:37.398Z,62.30
2019-02-16T21:11:04.299Z,62.20
2019-02-16T21:13:31.618Z,62.20
2019-02-16T21:15:58.916Z,62.30
2019-02-16T21:18:26.113Z,62.30
2019-02-16T21:20:53.157Z,62.40
2019-02-16T21:23:20.259Z,62.30
2019-02-16T21:25:47.443Z,62.50
2019-02-16T21:28:14.453Z,62.60
2019-02-16T21:30:41.521Z,62.00
2019-02-16T21:33:08.486Z,61.70
2019-02-16T21:35:35.676Z,62.00
2019-02-16T21:38:02.843Z,62.20
2019-02-16T21:40:29.701Z,61.70
2019-02-16T21:42:56.483Z,61.80
2019-02-16T21:45:23.279Z,62.20
2019-02-16T21:47:50.103Z,62.30
2019-02-16T21:50:16.835Z,62.40
2019-02-16T21:52:43.582Z,62.40
2019-02-16T21:55:10.352Z,61.60
2019-02-16T21:57:37.116Z,61.70
2019-02-16T22:00:06.883Z,61.80
2019-02-16T22:02:33.602Z,62.30
2019-02-16T22:05:00.407Z,62.40
2019-02-16T22:07:27.100Z,62.40
2019-02-16T22:09:53.837Z,62.30
2019-02-16T22:12:20.572Z,62.60
2019-02-16T22:14:47.357Z,62.90
2019-02-16T22:17:14.085Z,62.40
2019-02-16T22:19:40.971Z,61.80
2019-02-16T22:22:07.677Z,61.90
2019-02-16T22:24:34.388Z,61.80
2019-02-16T22:27:01.190Z,62.00
2019-02-16T22:29:27.919Z,62.40
2019-02-16T22:31:54.734Z,62.10
2019-02-16T22:34:21.457Z,61.80
2019-02-16T22:36:48.214Z,61.90
2019-02-16T22:39:14.999Z,61.90
2019-02-16T22:41:41.729Z,62.00
2019-02-16T22:44:08.453Z,62.20
2019-02-16T22:46:35.241Z,61.90
2019-02-16T22:49:01.969Z,62.30
2019-02-16T22:51:28.711Z,62.30
2019-02-16T22:53:55.452Z,62.40
2019-02-16T22:56:22.179Z,62.00
2019-02-16T22:58:48.979Z,62.20
2019-02-16T23:01:15.732Z,62.40
2019-02-16T23:03:42.478Z,62.00
2019-02-16T23:06:09.249Z,61.90
2019-02-16T23:08:36.012Z,62.30
2019-02-16T23:11:02.720Z,61.50
2019-02-16T23:13:29.519Z,61.70
2019-02-16T23:15:56.257Z,61.90
2019-02-16T23:18:22.995Z,62.30
2019-02-16T23:20:49.823Z,62.40
2019-02-16T23:23:16.585Z,62.30
2019-02-16T23:25:43.322Z,62.40
2019-02-16T23:28:10.120Z,62.60
2019-02-16T23:30:36.874Z,62.40
2019-02-16T23:33:03.618Z,62.20
2019-02-16T23:35:30.413Z,61.90
2019-02-16T23:37:57.166Z,62.10
2019-02-16T23:40:23.884Z,61.90
2019-02-16T23:42:50.641Z,62.60
2019-02-16T23:45:17.378Z,61.90
2019-02-16T23:47:44.134Z,62.00
2019-02-16T23:50:10.902Z,62.20
2019-02-16T23:52:37.658Z,62.00
2019-02-16T23:55:08.467Z,62.00
2019-02-16T23:57:35.196Z,62.10
